Time;durP1;ratioP1;P1;durP2;ratioP2;P2;SDS_P1;SDS_P2;PMS_P1;PMS_P2;Temp;Humidity;BMP_temperature;BMP_pressure;BME280_temperature;BME280_humidity;BME280_pressure;Samples;Min_cycle;Max_cycle;Signal;HPM_P1;HPM_P2
2022/06/04 00:00:52;;;;;;;4.10;1.30;;;21.00;56.50;;;;;;4468120;32;20191;-63
2022/06/04 00:03:18;;;;;;;4.05;1.35;;;21.00;56.50;;;;;;4483019;32;20136;-63
2022/06/04 00:05:49;;;;;;;2.08;1.10;;;21.00;56.40;;;;;;4466511;32;20171;-63
2022/06/04 00:08:16;;;;;;;3.05;1.42;;;21.00;56.50;;;;;;4482684;32;20144;-63
2022/06/04 00:16:16;;;;;;;1.33;0.90;;;20.90;56.40;;;;;;4482541;32;20149;-63
2022/06/04 00:18:42;;;;;;;2.70;1.40;;;20.90;56.40;;;;;;4481484;32;20140;-63
2022/06/04 00:21:10;;;;;;;2.30;1.08;;;20.90;56.40;;;;;;4482332;32;20125;-63
2022/06/04 00:23:49;;;;;;;2.00;1.15;;;20.90;56.40;;;;;;4482160;32;20133;-63
2022/06/04 00:26:15;;;;;;;1.95;1.17;;;20.90;56.40;;;;;;4481893;32;20131;-63
2022/06/04 00:28:41;;;;;;;2.30;1.23;;;20.90;56.40;;;;;;4482464;32;20129;-63
2022/06/04 00:31:08;;;;;;;2.58;1.27;;;20.90;56.40;;;;;;4481481;32;20472;-63
2022/06/04 00:33:34;;;;;;;1.75;1.15;;;20.90;56.40;;;;;;4482662;32;20574;-63
2022/06/04 00:36:00;;;;;;;2.85;1.40;;;20.90;56.40;;;;;;4467242;32;20117;-63
2022/06/04 00:38:29;;;;;;;2.42;1.30;;;20.90;56.40;;;;;;4481941;32;20129;-63
2022/06/04 00:41:32;;;;;;;2.47;1.30;;;20.90;56.40;;;;;;4481757;32;20136;-63
2022/06/04 00:44:10;;;;;;;2.97;1.50;;;20.90;56.30;;;;;;4473332;32;20156;-63
2022/06/04 00:46:39;;;;;;;2.55;1.10;;;20.90;56.40;;;;;;4480079;32;20160;-64
2022/06/04 00:49:10;;;;;;;2.55;1.20;;;20.90;56.40;;;;;;4469165;32;20148;-63
2022/06/04 00:51:37;;;;;;;2.45;1.10;;;20.80;56.40;;;;;;4478088;32;20148;-63
2022/06/04 00:54:04;;;;;;;2.92;1.50;;;20.80;56.40;;;;;;4481807;32;20137;-63
2022/06/04 00:56:57;;;;;;;2.33;0.98;;;20.80;56.40;;;;;;4467054;32;20129;-63
2022/06/04 00:59:29;;;;;;;2.97;1.10;;;20.80;57.30;;;;;;4482295;32;20139;-63
2022/06/04 01:02:14;;;;;;;2.10;1.08;;;20.80;56.40;;;;;;4481093;32;20121;-63
2022/06/04 01:05:18;;;;;;;2.17;1.00;;;20.80;56.30;;;;;;4481509;32;20185;-63
2022/06/04 01:08:12;;;;;;;1.55;1.10;;;20.80;56.40;;;;;;4462052;32;20137;-64
2022/06/04 01:11:14;;;;;;;3.42;1.00;;;20.80;56.40;;;;;;4480805;32;20287;-63
2022/06/04 01:13:51;;;;;;;3.70;1.30;;;20.80;56.30;;;;;;4480965;32;20139;-64
2022/06/04 01:16:31;;;;;;;2.60;1.10;;;20.80;56.40;;;;;;4482043;32;20328;-63
2022/06/04 01:19:12;;;;;;;3.00;1.33;;;20.80;56.40;;;;;;4480555;32;20216;-63
2022/06/04 01:22:02;;;;;;;2.13;0.98;;;20.80;56.40;;;;;;4481239;32;20168;-63
2022/06/04 01:24:36;;;;;;;3.28;1.13;;;20.80;56.40;;;;;;4469753;32;20226;-63
2022/06/04 01:27:08;;;;;;;1.73;1.15;;;20.70;56.40;;;;;;4464659;32;20144;-63
2022/06/04 01:29:43;;;;;;;2.55;1.33;;;20.70;56.40;;;;;;4468635;32;20270;-63
2022/06/04 01:32:17;;;;;;;2.40;1.30;;;20.70;56.40;;;;;;4477567;32;20210;-63
2022/06/04 01:35:02;;;;;;;2.28;1.13;;;20.70;56.40;;;;;;4470122;32;20187;-63
2022/06/04 01:37:35;;;;;;;1.77;1.27;;;20.70;56.40;;;;;;4481624;32;20143;-63
2022/06/04 01:42:51;;;;;;;2.22;1.05;;;20.70;56.40;;;;;;4471431;32;20549;-63
2022/06/04 01:45:20;;;;;;;1.80;1.05;;;20.70;57.30;;;;;;4479647;32;20198;-63
2022/06/04 01:47:50;;;;;;;2.20;1.20;;;20.70;56.40;;;;;;4480713;32;20136;-63
2022/06/04 01:50:22;;;;;;;2.55;1.50;;;20.70;56.40;;;;;;4481128;31;20160;-63
2022/06/04 01:52:49;;;;;;;1.98;1.20;;;20.70;56.40;;;;;;4479669;31;20139;-63
2022/06/04 01:55:18;;;;;;;2.53;1.30;;;20.70;56.40;;;;;;4481114;32;20275;-63
2022/06/04 01:57:55;;;;;;;2.13;1.08;;;20.70;56.40;;;;;;4479919;31;20303;-63
2022/06/04 02:00:36;;;;;;;2.05;1.23;;;20.70;56.40;;;;;;4480171;31;20121;-63
2022/06/04 02:03:11;;;;;;;2.03;1.02;;;20.60;56.40;;;;;;4465828;31;20239;-63
2022/06/04 02:06:04;;;;;;;1.65;1.10;;;20.60;56.40;;;;;;4479593;32;20259;-63
2022/06/04 02:08:45;;;;;;;1.85;1.10;;;20.60;56.40;;;;;;4480321;31;20176;-63
2022/06/04 02:11:15;;;;;;;1.77;0.98;;;20.60;56.50;;;;;;4478625;32;20137;-63
2022/06/04 02:13:44;;;;;;;2.67;1.20;;;20.60;56.50;;;;;;4479715;32;20136;-63
2022/06/04 02:16:20;;;;;;;1.75;1.10;;;20.60;56.40;;;;;;4478971;32;20141;-63
2022/06/04 02:18:47;;;;;;;1.77;1.10;;;20.60;56.40;;;;;;4479573;31;20113;-63
2022/06/04 02:21:15;;;;;;;2.00;1.35;;;20.60;56.40;;;;;;4480371;32;20139;-63
2022/06/04 02:23:43;;;;;;;2.05;1.13;;;20.60;56.40;;;;;;4480057;32;20143;-63
2022/06/04 02:26:09;;;;;;;2.88;1.15;;;20.60;56.50;;;;;;4480257;32;20133;-63
2022/06/04 02:28:36;;;;;;;1.48;1.10;;;20.60;56.50;;;;;;4480891;32;20779;-63
2022/06/04 02:31:35;;;;;;;1.50;1.08;;;20.60;56.40;;;;;;4468375;32;20164;-63
2022/06/04 02:34:25;;;;;;;1.27;0.88;;;20.60;56.40;;;;;;4474318;32;20137;-63
2022/06/04 02:37:01;;;;;;;1.88;1.10;;;20.60;56.40;;;;;;4474245;32;20148;-63
2022/06/04 02:39:58;;;;;;;2.38;1.20;;;20.50;56.40;;;;;;4483048;32;20544;-63
2022/06/04 02:42:47;;;;;;;1.88;1.13;;;20.50;56.40;;;;;;4484210;32;20128;-63
2022/06/04 02:45:24;;;;;;;1.35;1.10;;;20.50;56.40;;;;;;4471275;32;20144;-63
2022/06/04 02:47:57;;;;;;;1.45;0.90;;;20.60;56.50;;;;;;4482195;32;20210;-63
2022/06/04 02:50:32;;;;;;;1.00;0.90;;;20.50;56.50;;;;;;4484302;32;20137;-63
2022/06/04 02:53:01;;;;;;;2.45;0.98;;;20.50;56.50;;;;;;4482499;32;20148;-63
2022/06/04 02:55:35;;;;;;;1.15;1.02;;;20.50;56.50;;;;;;4483968;32;20536;-63
2022/06/04 02:58:02;;;;;;;;;;;20.50;56.50;;;;;;4483956;32;20131;-63
2022/06/04 03:00:29;;;;;;;1.27;0.85;;;20.50;56.50;;;;;;4468590;32;20037;-63
2022/06/04 03:02:55;;;;;;;1.58;0.70;;;20.50;56.60;;;;;;4477741;32;20529;-63
2022/06/04 03:05:24;;;;;;;1.60;0.98;;;20.50;56.60;;;;;;4468428;32;20152;-63
2022/06/04 03:07:54;;;;;;;2.03;0.98;;;20.50;56.60;;;;;;4483896;32;20263;-63
2022/06/04 03:10:24;;;;;;;1.50;0.90;;;20.50;56.60;;;;;;4482547;32;20230;-63
2022/06/04 03:12:50;;;;;;;1.88;1.35;;;20.50;56.60;;;;;;4483223;32;20187;-63
2022/06/04 03:15:16;;;;;;;1.20;0.93;;;20.50;56.60;;;;;;4482980;32;20132;-63
2022/06/04 03:17:45;;;;;;;1.33;0.90;;;20.50;56.60;;;;;;4482917;32;20357;-63
2022/06/04 03:20:14;;;;;;;1.40;0.90;;;20.50;56.60;;;;;;4483365;32;20234;-63
2022/06/04 03:22:39;;;;;;;2.10;1.00;;;20.50;56.60;;;;;;4482479;32;20132;-63
2022/06/04 03:25:05;;;;;;;1.90;1.20;;;20.40;56.60;;;;;;4469459;32;20097;-63
2022/06/04 03:27:32;;;;;;;1.90;1.10;;;20.40;56.60;;;;;;4482450;32;20109;-63
2022/06/04 03:29:58;;;;;;;1.58;1.08;;;20.40;56.60;;;;;;4482989;32;20151;-63
2022/06/04 03:32:24;;;;;;;1.73;0.90;;;20.40;56.60;;;;;;4482714;32;20172;-63
2022/06/04 03:34:50;;;;;;;1.52;1.00;;;20.40;56.60;;;;;;4471522;32;20141;-63
2022/06/04 03:37:16;;;;;;;1.50;1.08;;;20.40;56.60;;;;;;4483379;32;20143;-63
2022/06/04 03:39:42;;;;;;;1.35;1.00;;;20.40;56.60;;;;;;4481872;32;20279;-63
2022/06/04 03:42:08;;;;;;;1.05;0.90;;;20.40;56.60;;;;;;4483241;32;20125;-63
2022/06/04 03:44:35;;;;;;;1.35;1.00;;;20.40;56.60;;;;;;4482175;32;20159;-63
2022/06/04 03:47:01;;;;;;;2.58;1.00;;;20.40;57.50;;;;;;4482834;32;20141;-63
2022/06/04 03:49:27;;;;;;;2.25;1.00;;;20.40;56.60;;;;;;4482589;32;20117;-63
2022/06/04 03:51:53;;;;;;;1.55;1.02;;;20.40;56.70;;;;;;4482110;32;20132;-63
2022/06/04 03:54:52;;;;;;;1.45;0.88;;;20.40;56.70;;;;;;4483181;32;20117;-63
2022/06/04 03:59:53;;;;;;;2.30;1.00;;;20.30;56.60;;;;;;4482789;32;20117;-63
2022/06/04 04:02:19;;;;;;;1.02;0.90;;;20.40;56.70;;;;;;4482337;32;20194;-63
2022/06/04 04:04:45;;;;;;;2.17;0.95;;;20.30;56.60;;;;;;4482372;32;20128;-63
2022/06/04 04:07:13;;;;;;;1.35;0.90;;;20.40;56.70;;;;;;4482595;32;20242;-63
2022/06/04 04:09:39;;;;;;;0.95;0.80;;;20.30;56.60;;;;;;4481552;32;20182;-63
2022/06/04 04:12:06;;;;;;;1.42;0.70;;;20.30;56.60;;;;;;4482726;32;20280;-63
2022/06/04 04:14:32;;;;;;;1.80;0.88;;;20.30;56.60;;;;;;4481840;32;20459;-63
2022/06/04 04:16:58;;;;;;;1.13;0.95;;;20.30;56.70;;;;;;4468338;32;20624;-63
2022/06/04 04:19:26;;;;;;;1.08;0.90;;;20.30;56.60;;;;;;4482031;32;20209;-63
2022/06/04 04:21:52;;;;;;;2.25;1.05;;;20.30;56.60;;;;;;4482021;32;20124;-63
2022/06/04 04:24:18;;;;;;;1.55;0.90;;;20.30;57.60;;;;;;4482528;32;20137;-63
2022/06/04 04:26:44;;;;;;;1.23;0.90;;;20.30;56.70;;;;;;4481495;32;20136;-63
2022/06/04 04:29:10;;;;;;;0.82;0.80;;;20.30;56.70;;;;;;4482563;32;20121;-63
2022/06/04 04:31:36;;;;;;;1.27;0.93;;;20.30;56.70;;;;;;4481587;32;20136;-63
2022/06/04 04:34:03;;;;;;;1.17;0.95;;;20.30;56.70;;;;;;4472281;32;20148;-63
2022/06/04 04:36:30;;;;;;;0.95;0.85;;;20.30;56.70;;;;;;4480677;32;20125;-63
2022/06/04 04:38:56;;;;;;;1.55;0.98;;;20.30;56.70;;;;;;4467526;32;20136;-63
2022/06/04 04:41:23;;;;;;;1.40;1.10;;;20.30;56.70;;;;;;4482023;32;20147;-63
2022/06/04 04:43:50;;;;;;;0.73;0.73;;;20.30;56.70;;;;;;4481318;32;20124;-63
2022/06/04 04:46:16;;;;;;;1.38;0.73;;;20.30;56.70;;;;;;4482489;32;20262;-63
2022/06/04 04:48:45;;;;;;;1.10;0.80;;;20.30;56.70;;;;;;4481150;32;20143;-63
2022/06/04 04:51:18;;;;;;;0.95;0.70;;;20.30;56.70;;;;;;4481995;32;20136;-63
2022/06/04 04:53:47;;;;;;;0.95;0.85;;;20.30;56.70;;;;;;4481278;32;20566;-63
2022/06/04 04:56:21;;;;;;;4.15;0.90;;;20.30;56.70;;;;;;4481396;32;20194;-63
2022/06/04 04:58:46;;;;;;;;;;;20.30;56.80;;;;;;4482969;32;20152;-63
2022/06/04 05:01:17;;;;;;;1.15;0.90;;;20.30;56.70;;;;;;4466755;32;20072;-63
2022/06/04 05:03:44;;;;;;;2.95;1.00;;;20.20;56.70;;;;;;4481982;32;20125;-63
2022/06/04 05:06:12;;;;;;;1.45;1.00;;;20.20;56.70;;;;;;4481284;32;20147;-63
2022/06/04 05:08:38;;;;;;;1.23;1.08;;;20.30;56.80;;;;;;4481075;32;20117;-63
2022/06/04 05:11:15;;;;;;;1.70;1.00;;;20.30;56.80;;;;;;4481516;32;20097;-63
2022/06/04 05:13:42;;;;;;;1.15;0.95;;;20.30;56.80;;;;;;4480868;32;20137;-63
2022/06/04 05:16:08;;;;;;;1.48;0.90;;;20.30;56.80;;;;;;4481996;32;20124;-63
2022/06/04 05:18:34;;;;;;;1.42;1.02;;;20.30;56.90;;;;;;4480608;32;20163;-63
2022/06/04 05:21:37;;;;;;;1.23;0.90;;;20.30;56.90;;;;;;4481625;32;20125;-64
2022/06/04 05:24:04;;;;;;;0.80;0.70;;;20.30;57.00;;;;;;4480364;32;20206;-63
2022/06/04 05:26:31;;;;;;;1.80;0.93;;;20.30;57.90;;;;;;4480769;32;20129;-63
2022/06/04 05:28:57;;;;;;;1.10;0.80;;;20.30;57.00;;;;;;4467824;32;20117;-63
2022/06/04 05:31:23;;;;;;;1.25;0.90;;;20.30;57.00;;;;;;4480520;32;20202;-63
2022/06/04 05:33:49;;;;;;;1.70;0.98;;;20.30;57.10;;;;;;4459142;32;20139;-63
2022/06/04 05:36:16;;;;;;;1.42;0.80;;;20.30;57.20;;;;;;4476565;32;20195;-63
2022/06/04 05:38:42;;;;;;;1.00;0.80;;;20.30;57.20;;;;;;4480868;32;20133;-63
2022/06/04 05:41:11;;;;;;;1.98;1.23;;;20.30;57.20;;;;;;4467003;32;20222;-63
2022/06/04 05:43:39;;;;;;;1.20;0.98;;;20.30;57.00;;;;;;4480555;32;20117;-63
2022/06/04 05:46:10;;;;;;;1.52;0.88;;;20.30;57.10;;;;;;4481691;32;20152;-63
2022/06/04 05:48:39;;;;;;;0.75;0.63;;;20.30;57.90;;;;;;4480301;32;20214;-63
2022/06/04 05:51:05;;;;;;;1.00;0.80;;;20.30;57.00;;;;;;4480021;32;20283;-63
2022/06/04 05:53:31;;;;;;;1.45;1.10;;;20.30;57.00;;;;;;4480612;32;20463;-63
2022/06/04 05:55:57;;;;;;;1.63;1.00;;;20.30;57.30;;;;;;4466638;32;20129;-63
2022/06/04 05:58:22;;;;;;;0.90;0.80;;;20.30;57.20;;;;;;4481000;32;20165;-63
2022/06/04 06:00:48;;;;;;;1.25;0.85;;;20.30;57.40;;;;;;4479256;32;20206;-63
2022/06/04 06:03:14;;;;;;;1.45;0.80;;;20.30;57.40;;;;;;4481259;32;20137;-63
2022/06/04 06:05:43;;;;;;;1.60;0.98;;;20.30;58.50;;;;;;4466244;32;20254;-63
2022/06/04 06:08:09;;;;;;;1.15;0.90;;;20.30;57.70;;;;;;4481108;32;20167;-63
2022/06/04 06:10:43;;;;;;;2.03;1.15;;;20.30;57.70;;;;;;4480196;32;20125;-63
2022/06/04 06:13:13;;;;;;;1.27;1.00;;;20.30;57.60;;;;;;4480503;32;20149;-63
2022/06/04 06:15:39;;;;;;;1.20;1.10;;;20.30;57.50;;;;;;4480788;32;20133;-63
2022/06/04 06:18:06;;;;;;;1.83;1.05;;;20.30;57.50;;;;;;4480046;32;20105;-63
2022/06/04 06:20:33;;;;;;;2.50;1.08;;;20.30;57.50;;;;;;4481098;32;20266;-63
2022/06/04 06:22:59;;;;;;;1.50;0.90;;;20.30;57.60;;;;;;4480026;32;20184;-63
2022/06/04 06:25:26;;;;;;;1.20;0.90;;;20.40;57.60;;;;;;4480642;32;20329;-63
2022/06/04 06:27:52;;;;;;;1.20;0.90;;;20.40;57.60;;;;;;4480498;32;20186;-63
2022/06/04 06:30:19;;;;;;;3.10;1.27;;;20.40;57.60;;;;;;4466303;32;20137;-63
2022/06/04 06:32:45;;;;;;;1.17;0.88;;;20.40;57.60;;;;;;4477014;32;20183;-63
2022/06/04 06:35:11;;;;;;;3.28;0.90;;;20.40;57.50;;;;;;4477327;32;20291;-63
2022/06/04 06:37:37;;;;;;;2.80;1.10;;;20.40;57.40;;;;;;4481523;32;20148;-63
2022/06/04 06:40:04;;;;;;;1.70;1.30;;;20.40;57.30;;;;;;4476711;32;20203;-63
2022/06/04 06:42:30;;;;;;;3.63;1.50;;;20.50;57.40;;;;;;4480322;32;20157;-63
2022/06/04 06:44:56;;;;;;;2.20;1.20;;;20.50;57.20;;;;;;4480822;32;20174;-62
2022/06/04 06:47:22;;;;;;;3.28;1.30;;;20.50;57.30;;;;;;4465868;32;20129;-64
2022/06/04 06:49:49;;;;;;;1.92;1.27;;;20.60;57.20;;;;;;4479931;32;20156;-63
2022/06/04 06:52:16;;;;;;;2.33;1.30;;;20.60;57.00;;;;;;4479043;32;20214;-63
2022/06/04 06:54:43;;;;;;;3.17;1.58;;;20.60;56.70;;;;;;4466496;32;20199;-62
2022/06/04 06:57:11;;;;;;;5.03;1.75;;;20.70;56.50;;;;;;4479327;32;20151;-62
2022/06/04 06:59:40;;;;;;;4.20;1.60;;;20.70;56.40;;;;;;4465945;32;20226;-63
2022/06/04 07:02:06;;;;;;;2.95;1.67;;;20.80;56.40;;;;;;4465604;32;20745;-65
2022/06/04 07:04:32;;;;;;;1.90;1.33;;;20.80;56.40;;;;;;4479981;32;20194;-62
2022/06/04 07:07:01;;;;;;;1.52;1.30;;;20.80;56.30;;;;;;4480329;32;20133;-62
2022/06/04 07:09:45;;;;;;;2.78;1.50;;;20.90;56.30;;;;;;4479341;32;20738;-62
2022/06/04 07:12:12;;;;;;;2.50;1.48;;;20.90;56.20;;;;;;4480549;32;20721;-63
2022/06/04 07:14:38;;;;;;;2.80;1.90;;;20.90;56.20;;;;;;4479752;32;20141;-62
2022/06/04 07:17:07;;;;;;;3.53;1.55;;;20.90;56.20;;;;;;4482681;32;20294;-63
2022/06/04 07:19:33;;;;;;;2.58;1.80;;;21.00;56.20;;;;;;4482968;32;20140;-64
2022/06/04 07:21:59;;;;;;;5.57;1.90;;;21.00;56.10;;;;;;4482534;32;20167;-63
2022/06/04 07:24:25;;;;;;;3.55;2.03;;;21.00;56.10;;;;;;4483590;32;20255;-62
2022/06/04 07:26:52;;;;;;;2.50;1.90;;;21.10;56.10;;;;;;4482321;32;20202;-62
2022/06/04 07:29:18;;;;;;;3.08;1.90;;;21.10;56.10;;;;;;4483302;32;20146;-62
2022/06/04 07:31:44;;;;;;;3.45;1.90;;;21.10;56.00;;;;;;4482163;32;20144;-62
2022/06/04 07:34:11;;;;;;;3.25;1.95;;;21.10;55.90;;;;;;4472249;32;20113;-63
2022/06/04 07:36:43;;;;;;;3.45;1.70;;;21.20;55.90;;;;;;4468315;32;20133;-62
2022/06/04 07:39:10;;;;;;;3.85;1.90;;;21.20;55.80;;;;;;4482311;32;20565;-62
2022/06/04 07:41:40;;;;;;;3.50;1.80;;;21.20;55.80;;;;;;4483215;32;20125;-62
2022/06/04 07:44:07;;;;;;;3.38;1.85;;;21.20;55.80;;;;;;4481027;32;20246;-62
2022/06/04 07:46:34;;;;;;;4.40;1.70;;;21.30;55.80;;;;;;4483048;32;20242;-62
2022/06/04 07:49:02;;;;;;;2.67;1.80;;;21.30;55.80;;;;;;4482433;32;20193;-62
2022/06/04 07:51:28;;;;;;;3.45;1.55;;;21.30;55.80;;;;;;4482276;32;20175;-62
2022/06/04 07:53:54;;;;;;;3.50;2.05;;;21.40;55.80;;;;;;4482744;32;20271;-62
2022/06/04 07:56:20;;;;;;;2.97;1.67;;;21.40;55.80;;;;;;4468084;32;20121;-62
2022/06/04 07:58:46;;;;;;;4.20;2.10;;;21.40;55.80;;;;;;4483166;32;20217;-62
2022/06/04 08:01:14;;;;;;;5.05;2.10;;;21.40;55.80;;;;;;4481770;32;20553;-62
2022/06/04 08:03:42;;;;;;;3.10;1.90;;;21.50;55.60;;;;;;4482977;32;20129;-62
2022/06/04 08:06:10;;;;;;;3.95;1.92;;;21.50;55.60;;;;;;4468157;32;20139;-63
2022/06/04 08:08:36;;;;;;;2.90;1.65;;;21.50;55.30;;;;;;4481580;31;20443;-62
2022/06/04 08:11:49;;;;;;;3.90;1.88;;;21.60;55.30;;;;;;4481277;31;20193;-62
2022/06/04 08:13:50;;;;;;;2.00;1.75;;;21.60;55.20;;;;;;4472286;31;20128;-62
2022/06/04 08:16:17;;;;;;;4.32;2.00;;;21.60;55.20;;;;;;4483321;31;20215;-62
2022/06/04 08:18:45;;;;;;;2.53;1.85;;;21.60;55.00;;;;;;4480612;32;20192;-62
2022/06/04 08:21:11;;;;;;;2.75;2.05;;;21.60;54.90;;;;;;4481620;31;20117;-62
2022/06/04 08:23:39;;;;;;;1.95;1.58;;;21.60;54.90;;;;;;4480900;31;20629;-62
2022/06/04 08:26:08;;;;;;;4.15;1.85;;;21.60;54.90;;;;;;4481249;31;20136;-62
2022/06/04 08:28:34;;;;;;;3.10;1.85;;;21.60;55.10;;;;;;4480592;32;20184;-62
2022/06/04 08:31:03;;;;;;;3.38;1.70;;;21.60;55.00;;;;;;4481170;32;20117;-62
2022/06/04 08:33:29;;;;;;;3.38;1.80;;;21.70;54.80;;;;;;4476119;32;20236;-62
2022/06/04 08:35:55;;;;;;;2.63;1.67;;;21.70;54.60;;;;;;4476880;32;20276;-62
2022/06/04 08:38:21;;;;;;;2.83;1.88;;;21.60;54.50;;;;;;4467893;32;20271;-62
2022/06/04 08:40:53;;;;;;;3.30;2.08;;;21.60;54.50;;;;;;4481489;32;20143;-62
2022/06/04 08:43:19;;;;;;;5.60;2.05;;;21.60;54.40;;;;;;4481380;32;20136;-62
2022/06/04 08:45:45;;;;;;;3.40;1.75;;;21.60;54.40;;;;;;4482386;32;20471;-62
2022/06/04 08:48:19;;;;;;;3.33;2.00;;;21.60;54.30;;;;;;4480798;32;20109;-62
2022/06/04 08:50:46;;;;;;;4.60;2.20;;;21.60;54.20;;;;;;4482318;32;20133;-62
2022/06/04 08:53:20;;;;;;;3.10;1.83;;;21.60;54.10;;;;;;4480983;32;20299;-62
2022/06/04 08:59:13;;;;;;;2.72;2.10;;;21.60;54.20;;;;;;4482008;32;20580;-61
2022/06/04 09:01:47;;;;;;;2.63;2.15;;;21.60;54.20;;;;;;4481045;32;20667;-62
2022/06/04 09:04:26;;;;;;;3.40;2.40;;;21.60;54.30;;;;;;4481421;32;20147;-62
2022/06/04 09:07:17;;;;;;;5.30;2.65;;;21.70;54.20;;;;;;4481547;32;20557;-62
2022/06/04 09:09:50;;;;;;;4.93;2.08;;;21.70;54.20;;;;;;4480254;32;20171;-62
2022/06/04 09:12:34;;;;;;;4.63;2.47;;;21.70;54.00;;;;;;4481158;31;20129;-62
2022/06/04 09:15:09;;;;;;;4.18;2.28;;;21.70;54.00;;;;;;4481255;32;20213;-62
2022/06/04 09:17:46;;;;;;;4.53;1.90;;;21.80;54.10;;;;;;4481037;32;20139;-62
2022/06/04 09:20:34;;;;;;;6.65;2.40;;;21.80;54.00;;;;;;4481820;32;20140;-62
2022/06/04 09:23:19;;;;;;;2.90;2.30;;;21.80;54.10;;;;;;4472642;32;20129;-62
2022/06/04 09:25:50;;;;;;;3.60;1.92;;;21.80;53.80;;;;;;4481072;32;20578;-62
2022/06/04 09:28:22;;;;;;;3.67;2.03;;;21.90;53.90;;;;;;4481505;32;20140;-62
2022/06/04 09:31:30;;;;;;;4.25;2.50;;;21.90;53.70;;;;;;4480221;32;20259;-62
2022/06/04 09:34:24;;;;;;;2.72;1.90;;;21.90;53.60;;;;;;4477608;31;20194;-62
2022/06/04 09:36:51;;;;;;;3.05;2.20;;;21.90;53.50;;;;;;4476478;31;20129;-62
2022/06/04 09:39:31;;;;;;;5.93;1.98;;;21.90;53.50;;;;;;4479660;31;20221;-62
2022/06/04 09:42:04;;;;;;;5.22;1.95;;;22.00;53.40;;;;;;4481505;31;20129;-62
2022/06/04 09:44:32;;;;;;;3.67;2.00;;;22.00;53.40;;;;;;4480170;31;20132;-62
2022/06/04 09:47:10;;;;;;;4.43;2.10;;;22.00;53.50;;;;;;4481031;31;20353;-62
2022/06/04 09:49:42;;;;;;;4.60;2.33;;;22.00;53.30;;;;;;4480975;32;20141;-62
2022/06/04 09:52:22;;;;;;;2.78;1.83;;;22.00;53.30;;;;;;4480011;32;20259;-62
2022/06/04 09:54:55;;;;;;;2.47;2.00;;;22.00;53.00;;;;;;4481494;32;20143;-62
2022/06/04 09:57:39;;;;;;;3.50;2.00;;;22.00;53.10;;;;;;4479904;31;21013;-62
2022/06/04 10:00:18;;;;;;;;;;;22.00;52.90;;;;;;4480464;31;20140;-63
2022/06/04 10:03:15;;;;;;;4.18;2.35;;;22.00;52.90;;;;;;4480967;31;20084;-62
2022/06/04 10:05:49;;;;;;;3.70;1.80;;;22.00;52.90;;;;;;4479571;31;20137;-62
2022/06/04 10:08:22;;;;;;;4.07;2.10;;;22.00;52.80;;;;;;4480589;31;20141;-62
2022/06/04 10:10:47;;;;;;;5.22;2.10;;;22.00;52.80;;;;;;4464309;32;20150;-62
2022/06/04 10:16:20;;;;;;;4.05;2.28;;;22.00;52.60;;;;;;4481136;31;20143;-62
2022/06/04 10:18:53;;;;;;;5.35;2.38;;;22.00;52.60;;;;;;4465953;32;20133;-62
2022/06/04 10:21:24;;;;;;;5.55;2.10;;;22.00;52.80;;;;;;4480405;32;20120;-62
2022/06/04 10:23:51;;;;;;;3.45;2.00;;;22.00;53.00;;;;;;4480516;32;20149;-62
2022/06/04 10:26:46;;;;;;;6.32;2.58;;;22.00;52.80;;;;;;4480036;32;20498;-62
2022/06/04 10:29:26;;;;;;;3.90;2.25;;;22.00;53.00;;;;;;4480855;32;20129;-63
2022/06/04 10:31:55;;;;;;;6.38;2.20;;;22.00;52.60;;;;;;4479946;32;20160;-62
2022/06/04 10:34:33;;;;;;;4.32;2.28;;;22.00;52.70;;;;;;4469014;32;20295;-62
2022/06/04 10:37:23;;;;;;;3.35;2.00;;;22.00;52.90;;;;;;4480807;32;20141;-62
2022/06/04 10:40:31;;;;;;;4.10;2.13;;;22.00;52.70;;;;;;4479363;32;20137;-61
2022/06/04 10:43:06;;;;;;;3.97;2.08;;;22.00;52.40;;;;;;4468007;32;20132;-62
2022/06/04 10:45:50;;;;;;;5.43;2.20;;;22.00;52.60;;;;;;4480903;32;20143;-62
2022/06/04 10:48:37;;;;;;;4.45;2.25;;;22.00;52.10;;;;;;4479551;32;20147;-62
2022/06/04 10:51:26;;;;;;;3.58;2.30;;;22.00;52.00;;;;;;4482062;32;20148;-62
2022/06/04 10:54:10;;;;;;;4.30;2.00;;;22.00;52.20;;;;;;4483672;32;20141;-62
2022/06/04 10:56:42;;;;;;;4.68;2.40;;;22.00;52.30;;;;;;4482315;31;20143;-62
2022/06/04 10:59:16;;;;;;;5.57;2.20;;;22.00;52.30;;;;;;4483283;31;20137;-62
2022/06/04 11:01:48;;;;;;;3.30;2.15;;;22.00;52.30;;;;;;4482015;31;20140;-62
2022/06/04 11:04:34;;;;;;;5.93;2.35;;;22.00;52.40;;;;;;4481707;31;20274;-62
2022/06/04 11:07:25;;;;;;;3.42;2.13;;;22.00;52.50;;;;;;4483346;31;20145;-62
2022/06/04 11:09:55;;;;;;;3.85;2.17;;;22.00;52.60;;;;;;4482125;31;20486;-63
2022/06/04 11:12:27;;;;;;;4.10;2.00;;;22.00;52.80;;;;;;4483294;31;20113;-63
2022/06/04 11:14:58;;;;;;;6.07;2.38;;;22.00;52.70;;;;;;4482434;31;20210;-62
2022/06/04 11:17:29;;;;;;;5.60;2.20;;;22.00;52.60;;;;;;4482138;31;20133;-62
2022/06/04 11:19:59;;;;;;;3.90;2.30;;;22.00;52.50;;;;;;4482948;31;20150;-63
2022/06/04 11:22:44;;;;;;;6.18;2.40;;;22.00;52.60;;;;;;4481808;31;20155;-63
2022/06/04 11:25:24;;;;;;;4.70;2.17;;;22.00;52.40;;;;;;4482877;31;20133;-63
2022/06/04 11:27:58;;;;;;;3.22;2.13;;;22.00;52.40;;;;;;4483350;31;20279;-62
2022/06/04 11:30:46;;;;;;;5.53;2.67;;;22.00;52.60;;;;;;4484538;31;20133;-62
2022/06/04 11:33:15;;;;;;;6.53;2.15;;;22.00;52.70;;;;;;4481923;31;20151;-62
2022/06/04 11:36:09;;;;;;;4.57;2.40;;;22.00;52.70;;;;;;4482148;31;20296;-62
2022/06/04 11:38:57;;;;;;;4.43;2.22;;;22.00;52.70;;;;;;4481919;31;20141;-63
2022/06/04 11:41:46;;;;;;;5.00;2.65;;;22.00;52.70;;;;;;4482742;31;20121;-62
2022/06/04 11:45:04;;;;;;;4.85;2.38;;;21.90;52.50;;;;;;4480912;31;20140;-63
2022/06/04 11:47:41;;;;;;;6.68;2.50;;;21.90;52.90;;;;;;4437142;31;20112;-63
2022/06/04 11:50:26;;;;;;;3.80;2.30;;;22.00;53.00;;;;;;4482682;31;20225;-63
2022/06/04 11:53:08;;;;;;;5.90;2.60;;;21.90;52.90;;;;;;4481098;31;20200;-63
2022/06/04 11:56:16;;;;;;;6.20;2.40;;;21.90;53.00;;;;;;4481762;31;20207;-62
2022/06/04 11:59:01;;;;;;;4.55;2.55;;;21.90;53.30;;;;;;4477284;31;20164;-64
2022/06/04 12:01:52;;;;;;;4.68;2.53;;;21.90;53.30;;;;;;4480066;31;20140;-63
2022/06/04 12:04:43;;;;;;;5.32;2.40;;;22.00;54.00;;;;;;4481210;31;20760;-62
2022/06/04 12:07:28;;;;;;;7.50;2.67;;;21.90;52.90;;;;;;4480754;31;20266;-63
2022/06/04 12:10:11;;;;;;;5.82;2.70;;;21.90;53.00;;;;;;4481094;31;20128;-62
2022/06/04 12:13:23;;;;;;;6.05;2.50;;;21.90;52.80;;;;;;4481277;31;20194;-62
2022/06/04 12:15:56;;;;;;;6.35;2.55;;;21.90;52.80;;;;;;4481116;31;20204;-61
2022/06/04 12:18:56;;;;;;;4.45;2.78;;;21.90;52.80;;;;;;4481652;31;20191;-63
2022/06/04 12:24:38;;;;;;;6.57;2.20;;;21.90;53.10;;;;;;4482232;31;20152;-62
2022/06/04 12:27:24;;;;;;;4.40;2.38;;;21.90;53.00;;;;;;4482346;31;20149;-64
2022/06/04 12:29:56;;;;;;;6.55;2.55;;;21.90;52.80;;;;;;4482613;31;20129;-63
2022/06/04 12:32:34;;;;;;;4.68;2.50;;;21.90;52.90;;;;;;4481746;32;20188;-62
2022/06/04 12:35:09;;;;;;;5.20;2.67;;;21.90;53.10;;;;;;4470873;32;20133;-62
2022/06/04 12:37:41;;;;;;;4.88;2.38;;;21.80;53.30;;;;;;4482591;32;20136;-62
2022/06/04 12:40:34;;;;;;;6.15;2.60;;;21.80;53.00;;;;;;4470717;32;20163;-62
2022/06/04 12:43:30;;;;;;;3.78;2.50;;;21.80;52.80;;;;;;4478213;32;20144;-62
2022/06/04 12:46:14;;;;;;;10.25;2.47;;;21.80;52.90;;;;;;4482535;32;20295;-62
2022/06/04 12:49:05;;;;;;;5.85;2.40;;;21.80;52.90;;;;;;4471181;32;20140;-62
2022/06/04 12:51:31;;;;;;;6.97;2.78;;;21.80;53.10;;;;;;4465151;32;20502;-61
2022/06/04 12:54:06;;;;;;;9.30;2.35;;;21.80;53.30;;;;;;4482072;32;20792;-62
2022/06/04 12:56:36;;;;;;;10.45;2.47;;;21.80;54.20;;;;;;4480935;32;20276;-62
2022/06/04 12:59:06;;;;;;;4.20;2.20;;;21.80;53.50;;;;;;4482362;32;20113;-62
2022/06/04 13:01:37;;;;;;;3.90;2.00;;;21.80;53.30;;;;;;4480998;32;20136;-62
2022/06/04 13:04:05;;;;;;;6.95;2.30;;;21.80;53.30;;;;;;4481698;32;20198;-61
2022/06/04 13:06:58;;;;;;;4.95;2.80;;;21.80;53.20;;;;;;4481419;32;20193;-62
2022/06/04 13:09:35;;;;;;;4.00;2.40;;;21.80;53.20;;;;;;4472442;32;20160;-62
2022/06/04 13:12:13;;;;;;;5.43;2.20;;;21.80;54.20;;;;;;4481874;32;20212;-62
2022/06/04 13:14:51;;;;;;;4.25;2.38;;;21.80;53.30;;;;;;4480793;32;20137;-62
2022/06/04 13:17:19;;;;;;;8.90;2.20;;;21.70;53.20;;;;;;4481219;32;20124;-62
2022/06/04 13:20:35;;;;;;;5.35;2.40;;;21.80;53.20;;;;;;4481643;32;20133;-62
2022/06/04 13:23:28;;;;;;;4.13;2.25;;;21.80;53.20;;;;;;4441297;32;20133;-62
2022/06/04 13:26:32;;;;;;;5.77;2.23;;;21.80;53.20;;;;;;4481183;32;20151;-62
2022/06/04 13:29:01;;;;;;;4.22;2.20;;;21.80;53.20;;;;;;4481726;32;20258;-62
2022/06/04 13:31:32;;;;;;;6.68;2.50;;;21.80;53.20;;;;;;4480488;32;20142;-62
2022/06/04 13:34:18;;;;;;;2.78;2.03;;;21.80;53.20;;;;;;4471916;32;20279;-62
2022/06/04 13:36:47;;;;;;;5.32;2.22;;;21.80;53.10;;;;;;4470962;32;20143;-62
2022/06/04 13:39:16;;;;;;;4.80;2.53;;;21.80;53.20;;;;;;4480522;32;20266;-62
2022/06/04 13:42:02;;;;;;;2.78;2.08;;;21.80;53.20;;;;;;4481520;32;20141;-62